Time;durP1;ratioP1;P1;durP2;ratioP2;P2;SDS_P1;SDS_P2;PMS_P1;PMS_P2;Temp;Humidity;BMP_temperature;BMP_pressure;BME280_temperature;BME280_humidity;BME280_pressure;Samples;Min_cycle;Max_cycle;Signal;HPM_P1;HPM_P2
2024/03/11 00:00:08;;;;;;;21.65;11.27;;;;;;;-141.50;100.00;63355.56;5012316;28;20052;-79
2024/03/11 00:02:37;;;;;;;26.67;13.18;;;;;;;-141.50;100.00;63355.56;5033657;28;20079;-81
2024/03/11 00:05:06;;;;;;;28.17;13.40;;;;;;;-141.50;100.00;63355.56;5050674;28;20080;-80
2024/03/11 00:07:36;;;;;;;26.13;12.57;;;;;;;-141.50;100.00;63355.56;5027363;28;20125;-79
2024/03/11 00:10:11;;;;;;;25.40;13.38;;;;;;;-141.50;100.00;63355.56;5047691;28;20586;-78
2024/03/11 00:12:40;;;;;;;;;;;;;;;-141.50;100.00;63355.56;5014861;28;20115;-79
2024/03/11 00:15:09;;;;;;;24.17;12.00;;;;;;;-141.50;100.00;63355.56;5013191;28;20284;-78
2024/03/11 00:17:36;;;;;;;25.15;12.70;;;;;;;-141.50;100.00;63355.56;5032207;28;20064;-80
2024/03/11 00:20:04;;;;;;;26.33;13.43;;;;;;;-141.50;100.00;63355.56;5004360;28;20052;-79
2024/03/11 00:22:31;;;;;;;31.98;14.00;;;;;;;-141.50;100.00;63355.56;5032277;28;20073;-80
2024/03/11 00:24:58;;;;;;;27.88;13.15;;;;;;;-141.50;100.00;63355.56;5050387;28;20063;-79
2024/03/11 00:27:25;;;;;;;28.95;13.07;;;;;;;-141.50;100.00;63355.56;5025618;28;20053;-82
2024/03/11 00:29:52;;;;;;;29.38;14.15;;;;;;;-141.50;100.00;63355.56;5029553;28;20480;-78
2024/03/11 00:32:20;;;;;;;26.00;13.10;;;;;;;-141.50;100.00;63355.56;5029404;28;20083;-81
2024/03/11 00:34:47;;;;;;;26.58;12.63;;;;;;;-141.50;100.00;63355.56;5043357;28;20049;-82
2024/03/11 00:37:15;;;;;;;30.48;14.02;;;;;;;-141.50;100.00;63355.56;5030301;28;20152;-80
2024/03/11 00:39:45;;;;;;;28.35;14.68;;;;;;;-141.50;100.00;63355.56;5029520;28;20057;-80
2024/03/11 00:42:12;;;;;;;30.75;15.18;;;;;;;-141.50;100.00;63355.56;5029849;28;20048;-80
2024/03/11 00:44:39;;;;;;;31.73;14.27;;;;;;;-141.50;100.00;63355.56;5030162;28;20454;-81
2024/03/11 00:47:06;;;;;;;33.90;15.82;;;;;;;-141.50;100.00;63355.56;5031594;28;20052;-81
2024/03/11 00:49:33;;;;;;;29.63;14.55;;;;;;;-141.50;100.00;63355.56;5033271;28;20064;-80
2024/03/11 00:52:00;;;;;;;34.17;15.23;;;;;;;-141.50;100.00;63355.56;5028205;28;20049;-80
2024/03/11 00:54:27;;;;;;;29.33;14.35;;;;;;;-141.50;100.00;63355.56;5034066;28;20058;-81
2024/03/11 00:56:55;;;;;;;33.28;15.55;;;;;;;-141.50;100.00;63355.56;5028244;28;20054;-79
2024/03/11 00:59:22;;;;;;;32.58;14.77;;;;;;;-141.50;100.00;63355.56;5012214;28;20545;-78
2024/03/11 01:01:49;;;;;;;30.95;14.80;;;;;;;-141.50;100.00;63355.56;5032747;28;20087;-81
2024/03/11 01:04:16;;;;;;;31.88;15.30;;;;;;;-141.50;100.00;63355.56;5031145;28;20049;-80
2024/03/11 01:06:43;;;;;;;29.23;14.73;;;;;;;-141.50;100.00;63355.56;5015049;28;20477;-79
2024/03/11 01:09:25;;;;;;;26.42;13.63;;;;;;;-141.50;100.00;63355.56;5045265;28;20052;-81
2024/03/11 01:11:52;;;;;;;33.15;14.65;;;;;;;-141.50;100.00;63355.56;5031197;28;20055;-80
2024/03/11 01:14:19;;;;;;;32.63;15.40;;;;;;;-141.50;100.00;63355.56;5021659;28;20123;-78
2024/03/11 01:16:46;;;;;;;33.97;15.07;;;;;;;-141.50;100.00;63355.56;5038613;28;20143;-80
2024/03/11 01:19:18;;;;;;;31.92;15.48;;;;;;;-141.50;100.00;63355.56;5034212;28;20048;-82
2024/03/11 01:21:49;;;;;;;;;;;;;;;-141.50;100.00;63355.56;5029671;28;20147;-79
2024/03/11 01:24:16;;;;;;;37.03;15.98;;;;;;;-141.50;100.00;63355.56;5049274;28;19921;-81
2024/03/11 01:26:47;;;;;;;34.05;16.10;;;;;;;-141.50;100.00;63355.56;5031058;28;20049;-79
2024/03/11 01:29:15;;;;;;;35.80;16.92;;;;;;;-141.50;100.00;63355.56;5028169;28;20059;-79
2024/03/11 01:31:42;;;;;;;37.95;16.92;;;;;;;-141.50;100.00;63355.56;5026950;28;20362;-82
2024/03/11 01:34:09;;;;;;;35.50;16.50;;;;;;;-141.50;100.00;63355.56;5029262;28;20050;-79
2024/03/11 01:36:36;;;;;;;30.80;15.75;;;;;;;-141.50;100.00;63355.56;5031715;28;20172;-79
2024/03/11 01:39:08;;;;;;;36.53;17.48;;;;;;;-141.50;100.00;63355.56;5031955;28;20075;-81
2024/03/11 01:41:39;;;;;;;33.10;16.95;;;;;;;-141.50;100.00;63355.56;5050334;28;20212;-80
2024/03/11 01:44:06;;;;;;;30.92;15.57;;;;;;;-141.50;100.00;63355.56;5049744;28;20071;-80
2024/03/11 01:46:33;;;;;;;33.70;16.00;;;;;;;-141.50;100.00;63355.56;5032714;28;20081;-80
2024/03/11 01:49:06;;;;;;;35.67;16.20;;;;;;;-141.50;100.00;63355.56;5023699;28;20134;-79
2024/03/11 01:51:34;;;;;;;32.22;15.55;;;;;;;-141.50;100.00;63355.56;5052058;28;20052;-80
2024/03/11 01:54:01;;;;;;;33.35;16.42;;;;;;;-141.50;100.00;63355.56;5039118;28;20333;-80
2024/03/11 01:56:28;;;;;;;30.90;15.40;;;;;;;-141.50;100.00;63355.56;5020687;28;20090;-80
2024/03/11 01:58:57;;;;;;;34.25;16.20;;;;;;;-141.50;100.00;63355.56;5019690;28;20063;-80
2024/03/11 02:01:26;;;;;;;34.90;15.13;;;;;;;-141.50;100.00;63355.56;5035649;28;20095;-79
2024/03/11 02:03:53;;;;;;;30.52;15.60;;;;;;;-141.50;100.00;63355.56;5053392;28;20059;-80
2024/03/11 02:06:20;;;;;;;37.47;15.90;;;;;;;-141.50;100.00;63355.56;5049429;28;20043;-81
2024/03/11 02:08:46;;;;;;;30.60;15.50;;;;;;;-141.50;100.00;63355.56;5017816;28;20071;-81
2024/03/11 02:11:13;;;;;;;29.83;14.93;;;;;;;-141.50;100.00;63355.56;5032402;28;20045;-78
2024/03/11 02:13:41;;;;;;;32.53;15.98;;;;;;;-141.50;100.00;63355.56;5047682;28;20056;-79
2024/03/11 02:16:08;;;;;;;33.75;14.60;;;;;;;-141.50;100.00;63355.56;5031431;28;20123;-80
2024/03/11 02:18:35;;;;;;;29.30;15.23;;;;;;;-141.50;100.00;63355.56;5047904;28;20061;-78
2024/03/11 02:21:02;;;;;;;27.85;14.32;;;;;;;-141.50;100.00;63355.56;5031970;28;20044;-80
2024/03/11 02:23:29;;;;;;;32.72;15.02;;;;;;;-141.50;100.00;63355.56;5021798;28;20525;-81
2024/03/11 02:25:55;;;;;;;32.67;15.63;;;;;;;-141.50;100.00;63355.56;5027290;28;20067;-81
2024/03/11 02:28:23;;;;;;;31.35;15.50;;;;;;;-141.50;100.00;63355.56;5031667;28;20132;-81
2024/03/11 02:30:49;;;;;;;33.50;16.23;;;;;;;-141.50;100.00;63355.56;5028892;28;20048;-80
2024/03/11 02:33:16;;;;;;;34.92;14.80;;;;;;;-141.50;100.00;63355.56;5030043;28;20457;-79
2024/03/11 02:35:43;;;;;;;32.97;15.90;;;;;;;-141.50;100.00;63355.56;5029930;28;20049;-80
2024/03/11 02:38:10;;;;;;;35.42;16.55;;;;;;;-141.50;100.00;63355.56;5031086;28;20071;-80
2024/03/11 02:40:39;;;;;;;32.60;15.82;;;;;;;-141.50;100.00;63355.56;5015206;28;20172;-81
2024/03/11 02:43:06;;;;;;;32.95;14.80;;;;;;;-141.50;100.00;63355.56;5049329;28;20129;-80
2024/03/11 02:45:34;;;;;;;32.83;15.25;;;;;;;-141.50;100.00;63355.56;5029835;28;20281;-80
2024/03/11 02:48:01;;;;;;;31.33;15.48;;;;;;;-141.50;100.00;63355.56;5049435;28;20045;-80
2024/03/11 02:50:28;;;;;;;31.10;16.00;;;;;;;-141.50;100.00;63355.56;5030356;28;20084;-80
2024/03/11 02:52:56;;;;;;;32.78;15.98;;;;;;;-141.50;100.00;63355.56;5026384;28;20062;-80
2024/03/11 02:55:23;;;;;;;31.35;16.00;;;;;;;-141.50;100.00;63355.56;5039517;28;20045;-80
2024/03/11 02:57:51;;;;;;;31.25;15.82;;;;;;;-141.50;100.00;63355.56;5031078;28;20396;-81
2024/03/11 03:00:18;;;;;;;36.42;17.75;;;;;;;-141.50;100.00;63355.56;5021737;28;20044;-80
2024/03/11 03:02:49;;;;;;;34.88;16.63;;;;;;;-141.50;100.00;63355.56;5016989;28;20060;-78
2024/03/11 03:05:17;;;;;;;36.75;17.50;;;;;;;-141.50;100.00;63355.56;5030245;28;20108;-79
2024/03/11 03:07:43;;;;;;;36.90;17.63;;;;;;;-141.50;100.00;63355.56;5029123;28;20135;-79
2024/03/11 03:10:10;;;;;;;35.38;18.45;;;;;;;-141.50;100.00;63355.56;5035447;28;20055;-81
2024/03/11 03:12:37;;;;;;;35.63;18.02;;;;;;;-141.50;100.00;63355.56;5021545;28;20074;-80
2024/03/11 03:15:05;;;;;;;39.85;20.23;;;;;;;-141.50;100.00;63355.56;5033448;28;20106;-80
2024/03/11 03:17:33;;;;;;;37.28;19.52;;;;;;;-141.50;100.00;63355.56;5049176;28;20043;-81
2024/03/11 03:20:00;;;;;;;37.78;19.58;;;;;;;-141.50;100.00;63355.56;5025717;28;20504;-81
2024/03/11 03:22:27;;;;;;;34.97;18.17;;;;;;;-141.50;100.00;63355.56;5028288;28;20582;-81
2024/03/11 03:24:54;;;;;;;37.42;19.00;;;;;;;-141.50;100.00;63355.56;5029842;28;20053;-81
2024/03/11 03:27:21;;;;;;;34.88;17.65;;;;;;;-141.50;100.00;63355.56;5012404;28;20045;-80
2024/03/11 03:29:48;;;;;;;41.13;18.70;;;;;;;-141.50;100.00;63355.56;5016920;28;20411;-81
2024/03/11 03:32:19;;;;;;;37.25;17.60;;;;;;;-141.50;100.00;63355.56;5031542;28;20056;-81
2024/03/11 03:34:46;;;;;;;39.38;17.92;;;;;;;-141.50;100.00;63355.56;5041840;28;20071;-80
2024/03/11 03:37:14;;;;;;;38.65;18.05;;;;;;;-141.50;100.00;63355.56;5041504;28;20045;-79
2024/03/11 03:39:41;;;;;;;35.35;18.48;;;;;;;-141.50;100.00;63355.56;5019538;28;20060;-80
2024/03/11 03:42:08;;;;;;;35.20;17.83;;;;;;;-141.50;100.00;63355.56;5038210;28;20059;-80
2024/03/11 03:44:36;;;;;;;35.83;16.88;;;;;;;-141.50;100.00;63355.56;5032766;28;20041;-80
2024/03/11 03:47:04;;;;;;;34.97;16.95;;;;;;;-141.50;100.00;63355.56;5051893;28;20588;-80
2024/03/11 03:49:32;;;;;;;33.47;16.38;;;;;;;-141.50;100.00;63355.56;5050575;28;20600;-80
2024/03/11 03:51:59;;;;;;;35.33;17.33;;;;;;;-141.50;100.00;63355.56;5026840;28;20084;-80
2024/03/11 03:54:27;;;;;;;40.38;16.58;;;;;;;-141.50;100.00;63355.56;5034792;28;20566;-80
2024/03/11 03:56:54;;;;;;;33.90;16.42;;;;;;;-141.50;100.00;63355.56;5016355;28;20068;-81
2024/03/11 03:59:22;;;;;;;32.75;15.88;;;;;;;-141.50;100.00;63355.56;5028836;28;20112;-79
2024/03/11 04:01:49;;;;;;;34.03;15.45;;;;;;;-141.50;100.00;63355.56;5037609;28;20507;-80
2024/03/11 04:04:15;;;;;;;34.45;15.57;;;;;;;-141.50;100.00;63355.56;5028485;28;20537;-78
2024/03/11 04:06:43;;;;;;;30.25;15.32;;;;;;;-141.50;100.00;63355.56;5027672;28;20057;-78
2024/03/11 04:09:10;;;;;;;31.52;15.75;;;;;;;-141.50;100.00;63355.56;5047462;28;20049;-79
2024/03/11 04:11:36;;;;;;;30.17;14.45;;;;;;;-141.50;100.00;63355.56;5012772;28;20045;-78
2024/03/11 04:14:05;;;;;;;31.63;14.65;;;;;;;-141.50;100.00;63355.56;5028273;28;20099;-79
2024/03/11 04:16:32;;;;;;;29.65;14.52;;;;;;;-141.50;100.00;63355.56;5033465;28;20118;-80
2024/03/11 04:18:59;;;;;;;30.33;15.10;;;;;;;-141.50;100.00;63355.56;5029173;28;20056;-79
2024/03/11 04:21:26;;;;;;;29.35;13.98;;;;;;;-141.50;100.00;63355.56;5016051;28;20051;-78
2024/03/11 04:23:52;;;;;;;27.48;13.38;;;;;;;-141.50;100.00;63355.56;5035396;28;20116;-79
2024/03/11 04:26:19;;;;;;;27.88;14.02;;;;;;;-141.50;100.00;63355.56;5023371;28;20141;-80
2024/03/11 04:28:46;;;;;;;28.83;13.48;;;;;;;-141.50;100.00;63355.56;5035996;28;20065;-81
2024/03/11 04:31:13;;;;;;;25.65;12.95;;;;;;;-141.50;100.00;63355.56;5045340;28;20124;-79
2024/03/11 04:33:40;;;;;;;28.45;12.40;;;;;;;-141.50;100.00;63355.56;5014577;28;20056;-80
2024/03/11 04:36:07;;;;;;;22.23;11.65;;;;;;;-141.50;100.00;63355.56;5026143;28;20306;-80
2024/03/11 04:38:34;;;;;;;23.65;11.52;;;;;;;-141.50;100.00;63355.56;5032126;28;20668;-79
2024/03/11 04:41:02;;;;;;;21.80;11.30;;;;;;;-141.50;100.00;63355.56;5032640;28;20045;-79
2024/03/11 04:43:29;;;;;;;22.27;11.50;;;;;;;-141.50;100.00;63355.56;5051489;28;20120;-78
2024/03/11 04:45:56;;;;;;;22.00;11.10;;;;;;;-141.50;100.00;63355.56;5033880;28;20053;-79
2024/03/11 04:48:23;;;;;;;20.05;10.40;;;;;;;-141.50;100.00;63355.56;5024021;28;20053;-79
2024/03/11 04:50:50;;;;;;;21.90;10.57;;;;;;;-141.50;100.00;63355.56;5033581;28;20529;-80
2024/03/11 04:53:17;;;;;;;20.30;10.10;;;;;;;-141.50;100.00;63355.56;5034715;28;20087;-79
2024/03/11 04:55:45;;;;;;;22.85;10.75;;;;;;;-141.50;100.00;63355.56;5034022;28;20049;-79
2024/03/11 04:58:11;;;;;;;21.27;9.73;;;;;;;-141.50;100.00;63355.56;5034506;28;20469;-79
2024/03/11 05:00:38;;;;;;;19.02;9.95;;;;;;;-141.50;100.00;63355.56;5036774;28;20067;-78
2024/03/11 05:03:06;;;;;;;18.65;9.60;;;;;;;-141.50;100.00;63355.56;5033642;28;20160;-78
2024/03/11 05:05:36;;;;;;;19.27;9.75;;;;;;;-141.50;100.00;63355.56;5030578;28;20056;-79
2024/03/11 05:08:04;;;;;;;20.30;9.73;;;;;;;-141.50;100.00;63355.56;5035325;28;20109;-80
2024/03/11 05:10:32;;;;;;;18.27;9.30;;;;;;;-141.50;100.00;63355.56;5036401;28;20724;-78
2024/03/11 05:12:59;;;;;;;20.27;9.45;;;;;;;-141.50;100.00;63355.56;5042145;28;20143;-80
2024/03/11 05:15:28;;;;;;;17.50;9.07;;;;;;;-141.50;100.00;63355.56;5026899;28;20594;-79
2024/03/11 05:17:55;;;;;;;17.85;9.35;;;;;;;-141.50;100.00;63355.56;5029054;28;20085;-79
2024/03/11 05:20:22;;;;;;;17.95;8.98;;;;;;;-141.50;100.00;63355.56;5026202;28;20057;-78
2024/03/11 05:22:50;;;;;;;16.15;8.48;;;;;;;-141.50;100.00;63355.56;5021033;28;20113;-79
2024/03/11 05:25:18;;;;;;;18.60;8.88;;;;;;;-141.50;100.00;63355.56;5029968;28;20403;-78
2024/03/11 05:27:46;;;;;;;17.70;8.60;;;;;;;-141.50;100.00;63355.56;5035657;28;20079;-80
2024/03/11 05:30:16;;;;;;;17.48;9.18;;;;;;;-141.50;100.00;63355.56;5032145;28;20052;-78
2024/03/11 05:32:43;;;;;;;16.08;8.50;;;;;;;-141.50;100.00;63355.56;5032292;28;20049;-79
2024/03/11 05:35:10;;;;;;;15.40;7.57;;;;;;;-141.50;100.00;63355.56;5011692;28;20052;-79
2024/03/11 05:37:37;;;;;;;15.95;8.05;;;;;;;-141.50;100.00;63355.56;5022146;28;20042;-79
2024/03/11 05:40:11;;;;;;;15.88;7.93;;;;;;;-141.50;100.00;63355.56;5035645;28;20045;-79
2024/03/11 05:42:40;;;;;;;12.88;7.00;;;;;;;-141.50;100.00;63355.56;5020992;28;20052;-79
2024/03/11 05:45:08;;;;;;;20.92;8.68;;;;;;;-141.50;100.00;63355.56;5022106;28;20045;-78
2024/03/11 05:47:35;;;;;;;15.13;7.80;;;;;;;-141.50;100.00;63355.56;5010989;28;20057;-79
2024/03/11 05:50:03;;;;;;;17.48;7.75;;;;;;;-141.50;100.00;63355.56;5037691;28;20041;-79
2024/03/11 05:52:32;;;;;;;15.15;7.70;;;;;;;-141.50;100.00;63355.56;5029517;28;20131;-79
2024/03/11 05:55:01;;;;;;;15.38;8.40;;;;;;;-141.50;100.00;63355.56;5045521;28;20222;-78
2024/03/11 05:57:35;;;;;;;16.35;8.55;;;;;;;-141.50;100.00;63355.56;5031101;28;20516;-78
2024/03/11 06:00:09;;;;;;;15.27;7.68;;;;;;;-141.50;100.00;63355.56;5024114;28;20574;-78
2024/03/11 06:02:36;;;;;;;15.50;7.93;;;;;;;-141.50;100.00;63355.56;5025143;28;20056;-79
2024/03/11 06:05:05;;;;;;;14.25;7.28;;;;;;;-141.50;100.00;63355.56;5025048;28;20072;-80
2024/03/11 06:07:33;;;;;;;16.42;8.25;;;;;;;-141.50;100.00;63355.56;5022163;28;20045;-79
2024/03/11 06:10:00;;;;;;;15.05;7.70;;;;;;;-141.50;100.00;63355.56;5040206;28;20057;-79
2024/03/11 06:12:30;;;;;;;14.15;7.22;;;;;;;-141.50;100.00;63355.56;5031644;28;20045;-80
2024/03/11 06:14:57;;;;;;;13.82;7.43;;;;;;;-141.50;100.00;63355.56;5026802;28;20048;-81
2024/03/11 06:17:24;;;;;;;15.90;7.85;;;;;;;-141.50;100.00;63355.56;5013391;28;20063;-80
2024/03/11 06:19:51;;;;;;;14.43;7.45;;;;;;;-141.50;100.00;63355.56;5028158;28;20048;-80
2024/03/11 06:22:18;;;;;;;13.75;7.07;;;;;;;-141.50;100.00;63355.56;5042623;28;20481;-80
2024/03/11 06:24:45;;;;;;;14.52;7.57;;;;;;;-141.50;100.00;63355.56;5026415;28;20391;-81
2024/03/11 06:27:14;;;;;;;12.75;6.47;;;;;;;-141.50;100.00;63355.56;5027905;28;20037;-80
2024/03/11 06:29:42;;;;;;;13.23;6.50;;;;;;;-141.50;100.00;63355.56;5026593;28;20047;-81
2024/03/11 06:32:10;;;;;;;15.35;6.13;;;;;;;-141.50;100.00;63355.56;5027951;28;20045;-85
2024/03/11 06:34:37;;;;;;;12.75;6.30;;;;;;;-141.50;100.00;63355.56;5001599;28;20053;-80
2024/03/11 06:37:04;;;;;;;10.82;5.68;;;;;;;-141.50;100.00;63355.56;5027533;28;20044;-80
2024/03/11 06:39:33;;;;;;;12.20;5.55;;;;;;;-141.50;100.00;63355.56;5027620;28;20041;-80
2024/03/11 06:42:01;;;;;;;9.55;5.28;;;;;;;-141.50;100.00;63355.56;5026948;28;20458;-81
2024/03/11 06:44:28;;;;;;;8.93;4.50;;;;;;;-141.50;100.00;63355.56;5045179;28;20048;-81
2024/03/11 06:47:11;;;;;;;7.70;4.18;;;;;;;-141.50;100.00;63355.56;5048215;28;20041;-81
2024/03/11 06:49:38;;;;;;;8.77;4.38;;;;;;;-141.50;100.00;63355.56;5020703;28;20055;-82
2024/03/11 06:52:09;;;;;;;5.43;3.22;;;;;;;-141.50;100.00;63355.56;5016641;28;20056;-83
2024/03/11 06:54:36;;;;;;;6.15;3.10;;;;;;;-141.50;100.00;63355.56;5049834;28;20037;-82
2024/03/11 06:57:05;;;;;;;4.90;3.08;;;;;;;-141.50;100.00;63355.56;5032597;28;20470;-82
2024/03/11 06:59:33;;;;;;;9.85;2.75;;;;;;;-141.50;100.00;63355.56;5031538;28;20631;-83
2024/03/11 07:02:00;;;;;;;5.65;2.60;;;;;;;-141.50;100.00;63355.56;5038376;28;20049;-81
2024/03/11 07:04:27;;;;;;;5.38;2.65;;;;;;;-141.50;100.00;63355.56;5017721;28;20288;-82
2024/03/11 07:06:53;;;;;;;5.53;2.80;;;;;;;-141.50;100.00;63355.56;5035880;28;20104;-83
2024/03/11 07:09:20;;;;;;;4.45;2.33;;;;;;;-141.50;100.00;63355.56;5037065;28;20564;-83
2024/03/11 07:11:47;;;;;;;3.85;2.15;;;;;;;-141.50;100.00;63355.56;5032931;28;20071;-81
2024/03/11 07:14:14;;;;;;;4.60;2.65;;;;;;;-141.50;100.00;63355.56;5050869;28;20075;-83
2024/03/11 07:16:45;;;;;;;5.15;2.33;;;;;;;-141.50;100.00;63355.56;5026627;28;20102;-82
2024/03/11 07:19:12;;;;;;;4.10;2.30;;;;;;;-141.50;100.00;63355.56;5031588;28;20074;-83
2024/03/11 07:21:39;;;;;;;3.83;2.00;;;;;;;-141.50;100.00;63355.56;5028413;28;20048;-81
2024/03/11 07:24:07;;;;;;;2.72;1.63;;;;;;;-141.50;100.00;63355.56;5028994;28;20067;-83
2024/03/11 07:26:34;;;;;;;2.78;1.67;;;;;;;-141.50;100.00;63355.56;5048182;28;20049;-82
2024/03/11 07:29:01;;;;;;;2.65;1.63;;;;;;;-141.50;100.00;63355.56;5047969;28;20045;-82
2024/03/11 07:31:28;;;;;;;2.90;1.50;;;;;;;-141.50;100.00;63355.56;5029220;28;20056;-81
2024/03/11 07:33:55;;;;;;;1.92;0.98;;;;;;;-141.50;100.00;63355.56;5025853;28;20063;-81
2024/03/11 07:36:22;;;;;;;3.53;1.33;;;;;;;-141.50;100.00;63355.56;5030126;28;20044;-81
2024/03/11 07:38:49;;;;;;;2.55;1.35;;;;;;;-141.50;100.00;63355.56;5029279;28;20102;-81
2024/03/11 07:41:16;;;;;;;3.05;1.17;;;;;;;-141.50;100.00;63355.56;5028853;28;20314;-81
2024/03/11 07:43:43;;;;;;;1.73;1.10;;;;;;;-141.50;100.00;63355.56;5037686;28;20048;-80
2024/03/11 07:46:11;;;;;;;1.88;1.00;;;;;;;-141.50;100.00;63355.56;5029170;28;20466;-81
2024/03/11 07:48:41;;;;;;;2.05;1.00;;;;;;;-141.50;100.00;63355.56;5028216;28;20037;-82
2024/03/11 07:51:08;;;;;;;1.00;0.70;;;;;;;-141.50;100.00;63355.56;5012461;28;20052;-79
2024/03/11 07:53:36;;;;;;;2.08;0.77;;;;;;;-141.50;100.00;63355.56;5012295;28;20132;-81
2024/03/11 07:56:04;;;;;;;1.38;0.90;;;;;;;-141.50;100.00;63355.56;5006506;28;20042;-81
2024/03/11 07:58:36;;;;;;;0.82;0.60;;;;;;;-141.50;100.00;63355.56;5015703;28;20033;-80
2024/03/11 08:01:03;;;;;;;0.85;0.60;;;;;;;-141.50;100.00;63355.56;5031605;28;20036;-81
2024/03/11 08:03:29;;;;;;;1.42;0.80;;;;;;;-141.50;100.00;63355.56;5036671;28;20049;-82
2024/03/11 08:05:58;;;;;;;1.73;0.80;;;;;;;-141.50;100.00;63355.56;5036033;28;20060;-81
2024/03/11 08:08:25;;;;;;;4.13;0.80;;;;;;;-141.50;100.00;63355.56;5050315;28;20040;-80
2024/03/11 08:10:53;;;;;;;1.92;0.73;;;;;;;-141.50;100.00;63355.56;5014691;28;20088;-82
2024/03/11 08:13:20;;;;;;;0.90;0.60;;;;;;;-141.50;100.00;63355.56;5035361;28;20048;-81
2024/03/11 08:15:48;;;;;;;1.55;0.70;;;;;;;-141.50;100.00;63355.56;5033406;28;20064;-82
2024/03/11 08:18:16;;;;;;;0.85;0.60;;;;;;;-141.50;100.00;63355.56;5034984;28;20057;-81
2024/03/11 08:20:43;;;;;;;0.90;0.60;;;;;;;-141.50;100.00;63355.56;5051213;28;20049;-80
2024/03/11 08:23:10;;;;;;;1.00;0.73;;;;;;;-141.50;100.00;63355.56;5034165;28;20049;-80
2024/03/11 08:25:37;;;;;;;2.63;0.77;;;;;;;-141.50;100.00;63355.56;5034310;28;20402;-79
2024/03/11 08:28:05;;;;;;;0.80;0.60;;;;;;;-141.50;100.00;63355.56;5034232;28;20056;-80
2024/03/11 08:30:31;;;;;;;1.20;0.63;;;;;;;-141.50;100.00;63355.56;5034007;28;20040;-81
2024/03/11 08:32:59;;;;;;;3.85;0.55;;;;;;;-141.50;100.00;63355.56;5029873;28;20044;-81
2024/03/11 08:35:27;;;;;;;0.88;0.60;;;;;;;-141.50;100.00;63355.56;5034618;28;20094;-81
2024/03/11 08:37:53;;;;;;;1.00;0.60;;;;;;;-141.50;100.00;63355.56;5030056;28;20063;-80
2024/03/11 08:40:21;;;;;;;1.13;0.60;;;;;;;-141.50;100.00;63355.56;5036202;28;20495;-80
2024/03/11 08:42:50;;;;;;;1.80;0.80;;;;;;;-141.50;100.00;63355.56;5024472;28;20059;-82
2024/03/11 08:45:18;;;;;;;0.70;0.60;;;;;;;-141.50;100.00;63355.56;5023619;28;20080;-82
2024/03/11 08:47:46;;;;;;;1.13;0.60;;;;;;;-141.50;100.00;63355.56;5038576;28;20041;-80
2024/03/11 08:50:16;;;;;;;1.98;1.20;;;;;;;-141.50;100.00;63355.56;5054585;28;20144;-81
2024/03/11 08:52:45;;;;;;;1.42;0.60;;;;;;;-141.50;100.00;63355.56;5047713;28;20059;-81
2024/03/11 08:55:13;;;;;;;1.38;0.65;;;;;;;-141.50;100.00;63355.56;5042745;28;20269;-83
2024/03/11 08:57:45;;;;;;;2.63;0.55;;;;;;;-141.50;100.00;63355.56;5055385;28;20045;-82
2024/03/11 09:00:15;;;;;;;0.82;0.50;;;;;;;-141.50;100.00;63355.56;5038055;28;20047;-82
2024/03/11 09:02:44;;;;;;;1.05;0.60;;;;;;;-141.50;100.00;63355.56;5034937;28;20523;-82
2024/03/11 09:05:17;;;;;;;0.73;0.50;;;;;;;-141.50;100.00;63355.56;5034588;28;20046;-80
2024/03/11 09:07:47;;;;;;;0.87;0.57;;;;;;;-141.50;100.00;63355.56;5015487;28;20531;-81
2024/03/11 09:10:14;;;;;;;0.95;0.52;;;;;;;-141.50;100.00;63355.56;5029922;28;20053;-81
2024/03/11 09:12:42;;;;;;;0.60;0.40;;;;;;;-141.50;100.00;63355.56;5036563;28;20053;-80
2024/03/11 09:15:16;;;;;;;0.70;0.50;;;;;;;-141.50;100.00;63355.56;5066006;28;20037;-82
2024/03/11 09:17:49;;;;;;;0.73;0.60;;;;;;;-141.50;100.00;63355.56;5039656;28;20053;-81
2024/03/11 09:20:20;;;;;;;0.93;0.43;;;;;;;-141.50;100.00;63355.56;5038331;28;20108;-80
2024/03/11 09:22:52;;;;;;;0.57;0.45;;;;;;;-141.50;100.00;63355.56;5038482;28;20045;-80
2024/03/11 09:25:25;;;;;;;1.05;0.60;;;;;;;-141.50;100.00;63355.56;5029892;28;20055;-79
2024/03/11 09:28:01;;;;;;;0.70;0.50;;;;;;;-141.50;100.00;63355.56;5039604;28;20037;-82
2024/03/11 09:30:32;;;;;;;0.60;0.40;;;;;;;-141.50;100.00;63355.56;5039488;28;20073;-80
2024/03/11 09:33:00;;;;;;;0.90;0.60;;;;;;;-141.50;100.00;63355.56;5028070;28;20775;-79
2024/03/11 09:35:28;;;;;;;0.77;0.40;;;;;;;-141.50;100.00;63355.56;5043550;28;20094;-77
2024/03/11 09:37:56;;;;;;;1.70;0.50;;;;;;;-141.50;100.00;63355.56;5009685;28;20056;-76
2024/03/11 09:40:26;;;;;;;0.50;0.40;;;;;;;-141.50;100.00;63355.56;5027591;28;20041;-79
2024/03/11 09:42:55;;;;;;;0.50;0.40;;;;;;;-141.50;100.00;63355.56;5021948;28;20063;-80
2024/03/11 09:45:27;;;;;;;0.40;0.30;;;;;;;-141.50;100.00;63355.56;5026089;28;20131;-83
2024/03/11 09:48:00;;;;;;;0.40;0.40;;;;;;;-141.50;100.00;63355.56;5019904;28;20091;-80
2024/03/11 09:50:33;;;;;;;1.05;0.43;;;;;;;-141.50;100.00;63355.56;5025130;28;20041;-81
2024/03/11 09:53:06;;;;;;;0.40;0.30;;;;;;;-141.50;100.00;63355.56;5023046;28;20055;-80
2024/03/11 09:55:35;;;;;;;0.30;0.30;;;;;;;-141.50;100.00;63355.56;4996832;28;20598;-80
2024/03/11 09:58:10;;;;;;;1.70;0.50;;;;;;;-141.50;100.00;63355.56;5023556;28;20052;-80
2024/03/11 10:00:57;;;;;;;0.80;0.40;;;;;;;-141.50;100.00;63355.56;5025943;28;20049;-78
2024/03/11 10:03:26;;;;;;;0.43;0.38;;;;;;;-141.50;100.00;63355.56;5011344;28;20061;-81
2024/03/11 10:05:57;;;;;;;4.80;0.52;;;;;;;-141.50;100.00;63355.56;5018908;28;20535;-82
2024/03/11 10:08:26;;;;;;;0.50;0.43;;;;;;;-141.50;100.00;63355.56;5030614;28;20568;-82
2024/03/11 10:11:13;;;;;;;0.55;0.40;;;;;;;-141.50;100.00;63355.56;5013156;28;20052;-80
2024/03/11 10:13:40;;;;;;;0.98;0.50;;;;;;;-141.50;100.00;63355.56;5043565;28;20076;-80
2024/03/11 10:16:19;;;;;;;1.50;0.60;;;;;;;-141.50;100.00;63355.56;5024876;28;20065;-82
2024/03/11 10:19:11;;;;;;;;;;;;;;;;;;;;;
2024/03/11 10:21:42;;;;;;;0.95;0.45;;;;;;;-141.50;100.00;63355.56;5037199;28;20141;-80
2024/03/11 10:24:10;;;;;;;0.77;0.50;;;;;;;-141.50;100.00;63355.56;5046266;28;20041;-79
2024/03/11 10:26:44;;;;;;;0.50;0.38;;;;;;;-141.50;100.00;63355.56;5049863;28;20094;-79
2024/03/11 10:29:12;;;;;;;0.60;0.43;;;;;;;-141.50;100.00;63355.56;5026393;28;20045;-81
2024/03/11 10:31:45;;;;;;;0.50;0.32;;;;;;;-141.50;100.00;63355.56;5029941;28;20467;-81
2024/03/11 10:34:13;;;;;;;1.13;0.60;;;;;;;-141.50;100.00;63355.56;5028416;28;20045;-82
2024/03/11 10:36:49;;;;;;;1.05;0.47;;;;;;;-141.50;100.00;63355.56;5029691;28;20434;-80
2024/03/11 10:39:25;;;;;;;;;;;;;;;;;;;;;
2024/03/11 10:41:52;;;;;;;0.90;0.60;;;;;;;-141.50;100.00;63355.56;5047270;28;20115;-80
2024/03/11 10:44:23;;;;;;;0.82;0.40;;;;;;;-141.50;100.00;63355.56;5034644;28;20049;-80
2024/03/11 10:46:51;;;;;;;0.60;0.40;;;;;;;-141.50;100.00;63355.56;5015653;28;20961;-80
2024/03/11 10:49:21;;;;;;;0.90;0.60;;;;;;;-141.50;100.00;63355.56;5041101;28;20060;-79
2024/03/11 10:51:48;;;;;;;0.90;0.80;;;;;;;-141.50;100.00;63355.56;5050240;28;20064;-78
2024/03/11 10:54:31;;;;;;;1.00;0.57;;;;;;;-141.50;100.00;63355.56;5035011;28;20053;-80
2024/03/11 10:57:01;;;;;;;0.65;0.40;;;;;;;-141.50;100.00;63355.56;5033159;28;20117;-79
2024/03/11 10:59:34;;;;;;;2.00;0.60;;;;;;;-141.50;100.00;63355.56;5028586;28;20127;-80
2024/03/11 11:02:06;;;;;;;1.35;0.50;;;;;;;-141.50;100.00;63355.56;5027235;28;20068;-79
2024/03/11 11:04:36;;;;;;;0.95;0.63;;;;;;;-141.50;100.00;63355.56;5016421;28;20064;-79
2024/03/11 11:07:08;;;;;;;1.00;0.77;;;;;;;-141.50;100.00;63355.56;5041002;28;20041;-80
2024/03/11 11:09:36;;;;;;;1.13;0.60;;;;;;;-141.50;100.00;63355.56;5033736;28;20056;-78